Time;durP1;ratioP1;P1;durP2;ratioP2;P2;SDS_P1;SDS_P2;PMS_P1;PMS_P2;Temp;Humidity;BMP_temperature;BMP_pressure;BME280_temperature;BME280_humidity;BME280_pressure;Samples;Min_cycle;Max_cycle;Signal;HPM_P1;HPM_P2
2024/04/16 00:00:56;;;;;;;4.57;4.10;;;7.00;99.90;;;;;;5363187;26;20482;-65
2024/04/16 00:03:23;;;;;;;5.30;4.23;;;6.90;99.90;;;;;;5356622;26;20479;-65
2024/04/16 00:05:53;;;;;;;6.17;4.27;;;7.00;99.90;;;;;;5358341;26;20490;-65
2024/04/16 00:08:20;;;;;;;7.40;4.63;;;6.90;99.90;;;;;;5349295;26;21418;-63
2024/04/16 00:10:50;;;;;;;6.63;4.63;;;6.90;99.90;;;;;;5356442;26;20477;-63
2024/04/16 00:13:20;;;;;;;4.90;4.43;;;6.80;99.90;;;;;;5355320;26;20486;-65
2024/04/16 00:15:50;;;;;;;6.30;5.50;;;6.70;99.90;;;;;;5351210;26;21212;-64
2024/04/16 00:18:17;;;;;;;5.23;4.37;;;6.70;99.90;;;;;;5350215;26;20491;-63
2024/04/16 00:20:47;;;;;;;6.80;4.30;;;6.80;99.90;;;;;;5349437;26;20505;-65
2024/04/16 00:23:14;;;;;;;5.13;4.63;;;6.80;99.90;;;;;;5357319;26;20490;-64
2024/04/16 00:25:44;;;;;;;7.00;5.27;;;6.80;99.90;;;;;;5355049;26;20957;-65
2024/04/16 00:28:11;;;;;;;7.70;5.07;;;6.70;99.90;;;;;;5354473;26;20537;-66
2024/04/16 00:30:44;;;;;;;5.30;4.67;;;6.70;99.90;;;;;;5350700;26;20480;-65
2024/04/16 00:33:11;;;;;;;5.47;4.80;;;6.70;99.90;;;;;;5355807;26;20480;-65
2024/04/16 00:35:42;;;;;;;6.53;4.97;;;6.70;99.90;;;;;;5357779;26;20571;-65
2024/04/16 00:38:10;;;;;;;5.83;4.83;;;6.70;99.90;;;;;;5349274;26;20540;-64
2024/04/16 00:40:40;;;;;;;5.70;5.07;;;6.60;99.90;;;;;;5356103;26;21043;-64
2024/04/16 00:43:15;;;;;;;5.70;4.90;;;6.70;99.90;;;;;;5352897;26;21438;-63
2024/04/16 00:45:52;;;;;;;6.27;5.67;;;6.70;99.90;;;;;;5356113;26;20492;-65
2024/04/16 00:48:20;;;;;;;6.20;5.03;;;6.70;99.90;;;;;;5356104;26;21305;-64
2024/04/16 00:50:53;;;;;;;6.60;5.60;;;6.70;99.90;;;;;;5354116;26;21330;-63
2024/04/16 00:53:22;;;;;;;8.33;5.63;;;6.70;99.90;;;;;;5355336;26;20486;-65
2024/04/16 00:55:53;;;;;;;8.03;5.20;;;6.80;99.90;;;;;;5359606;26;20548;-65
2024/04/16 00:58:21;;;;;;;6.50;5.27;;;6.80;99.90;;;;;;5359007;26;20532;-65
2024/04/16 01:00:53;;;;;;;5.87;4.57;;;6.80;99.90;;;;;;5354505;26;20593;-65
2024/04/16 01:03:21;;;;;;;5.93;4.40;;;6.80;99.90;;;;;;5354229;26;20484;-66
2024/04/16 01:05:51;;;;;;;5.43;4.73;;;6.70;99.90;;;;;;5357088;26;20485;-65
2024/04/16 01:08:18;;;;;;;5.47;4.97;;;6.70;99.90;;;;;;5355717;26;20489;-65
2024/04/16 01:10:48;;;;;;;5.47;4.27;;;6.70;99.90;;;;;;5355717;26;20537;-62
2024/04/16 01:13:15;;;;;;;5.60;3.80;;;6.60;99.90;;;;;;5350556;26;21143;-65
2024/04/16 01:15:45;;;;;;;7.43;4.30;;;6.60;99.90;;;;;;5347355;26;20525;-64
2024/04/16 01:18:18;;;;;;;5.20;4.00;;;6.70;99.90;;;;;;5349527;26;20534;-64
2024/04/16 01:20:45;;;;;;;4.20;3.20;;;6.70;99.90;;;;;;5353594;26;20472;-64
2024/04/16 01:23:18;;;;;;;4.20;3.43;;;6.80;99.90;;;;;;5352332;26;20482;-64
2024/04/16 01:25:45;;;;;;;3.30;3.00;;;6.70;99.90;;;;;;5357135;26;21030;-65
2024/04/16 01:28:15;;;;;;;3.33;3.00;;;6.70;99.90;;;;;;5358697;26;20488;-65
2024/04/16 01:30:42;;;;;;;3.90;3.40;;;6.70;99.90;;;;;;5354746;26;20488;-65
2024/04/16 01:33:12;;;;;;;5.20;3.07;;;6.80;99.90;;;;;;5360957;26;20536;-64
2024/04/16 01:35:39;;;;;;;3.10;2.80;;;6.70;99.90;;;;;;5360302;26;20488;-65
2024/04/16 01:38:09;;;;;;;2.70;2.50;;;6.70;99.90;;;;;;5355773;26;20539;-65
2024/04/16 01:40:38;;;;;;;5.33;3.30;;;6.60;99.90;;;;;;5356076;26;20529;-65
2024/04/16 01:43:08;;;;;;;3.27;2.83;;;6.60;99.90;;;;;;5356559;26;20631;-65
2024/04/16 01:45:35;;;;;;;3.57;3.07;;;6.70;99.90;;;;;;5353888;26;20590;-65
2024/04/16 01:48:06;;;;;;;3.23;2.93;;;6.70;99.90;;;;;;5352911;26;20496;-67
2024/04/16 01:50:33;;;;;;;3.23;2.77;;;6.70;99.90;;;;;;5357910;26;20484;-64
2024/04/16 01:53:03;;;;;;;4.00;3.50;;;6.70;99.90;;;;;;5348387;26;20477;-65
2024/04/16 01:55:30;;;;;;;3.10;2.77;;;6.70;99.90;;;;;;5359923;26;20513;-65
2024/04/16 01:58:03;;;;;;;4.30;3.10;;;6.70;99.90;;;;;;5354846;26;20840;-65
2024/04/16 02:00:30;;;;;;;5.13;3.30;;;6.70;99.90;;;;;;5355058;26;20586;-65
2024/04/16 02:03:02;;;;;;;3.50;3.20;;;6.70;99.90;;;;;;5350446;26;20587;-65
2024/04/16 02:05:29;;;;;;;4.17;3.53;;;6.70;99.90;;;;;;5360858;26;20526;-66
2024/04/16 02:07:59;;;;;;;4.40;3.70;;;6.70;99.90;;;;;;5349146;26;21100;-65
2024/04/16 02:10:27;;;;;;;3.30;3.00;;;6.80;99.90;;;;;;5357675;26;20496;-65
2024/04/16 02:12:56;;;;;;;4.00;3.27;;;6.80;99.90;;;;;;5353542;26;20875;-65
2024/04/16 02:15:26;;;;;;;3.77;3.47;;;6.70;99.90;;;;;;5353802;26;20482;-65
2024/04/16 02:17:56;;;;;;;6.90;3.50;;;6.70;99.90;;;;;;5356500;26;20492;-63
2024/04/16 02:20:24;;;;;;;4.70;3.53;;;6.70;99.90;;;;;;5355026;26;20544;-63
2024/04/16 02:22:53;;;;;;;5.37;3.60;;;6.70;99.90;;;;;;5356383;26;21957;-65
2024/04/16 02:25:21;;;;;;;5.43;3.70;;;6.70;99.90;;;;;;5354306;26;21094;-66
2024/04/16 02:27:50;;;;;;;3.83;3.37;;;6.70;99.90;;;;;;5358803;26;20503;-64
2024/04/16 02:30:18;;;;;;;4.73;3.67;;;6.70;99.90;;;;;;5355488;26;20480;-66
2024/04/16 02:32:50;;;;;;;4.10;3.00;;;6.70;99.90;;;;;;5355301;26;20567;-65
2024/04/16 02:35:17;;;;;;;4.27;3.87;;;6.70;99.90;;;;;;5358706;26;20495;-66
2024/04/16 02:37:48;;;;;;;5.07;4.37;;;6.70;99.90;;;;;;5357782;26;20490;-65
2024/04/16 02:40:16;;;;;;;4.07;3.60;;;6.70;99.90;;;;;;5357355;26;20546;-65
2024/04/16 02:42:45;;;;;;;4.50;4.07;;;6.80;99.90;;;;;;5348693;26;20539;-63
2024/04/16 02:45:13;;;;;;;3.70;3.30;;;6.80;99.90;;;;;;5353825;26;20486;-68
2024/04/16 02:47:43;;;;;;;3.53;3.23;;;6.80;99.90;;;;;;5345504;26;20901;-64
2024/04/16 02:50:13;;;;;;;4.50;3.63;;;6.80;99.90;;;;;;5356487;26;20468;-64
2024/04/16 02:52:43;;;;;;;8.23;3.70;;;6.80;99.90;;;;;;5348939;26;20593;-65
2024/04/16 02:55:11;;;;;;;3.90;3.50;;;6.80;99.90;;;;;;5347973;26;20536;-65
2024/04/16 02:57:41;;;;;;;4.30;3.60;;;6.70;99.90;;;;;;5347045;26;20491;-64
2024/04/16 03:00:09;;;;;;;7.10;4.13;;;6.70;99.90;;;;;;5345199;26;20542;-65
2024/04/16 03:02:39;;;;;;;4.70;4.27;;;6.70;99.90;;;;;;5345120;26;20488;-64
2024/04/16 03:05:06;;;;;;;4.87;3.60;;;6.70;99.90;;;;;;5349807;26;20488;-65
2024/04/16 03:07:38;;;;;;;4.40;3.80;;;6.70;99.90;;;;;;5348244;26;20540;-66
2024/04/16 03:10:06;;;;;;;5.17;3.60;;;6.70;99.90;;;;;;5342765;26;20605;-68
2024/04/16 03:12:36;;;;;;;3.90;3.20;;;6.80;99.90;;;;;;5356319;26;20480;-65
2024/04/16 03:15:04;;;;;;;6.80;3.60;;;6.80;99.90;;;;;;5346763;26;20927;-64
2024/04/16 03:17:34;;;;;;;4.13;3.50;;;6.80;99.90;;;;;;5352127;26;20488;-64
2024/04/16 03:20:01;;;;;;;3.93;3.57;;;6.80;99.90;;;;;;5351507;26;20494;-65
2024/04/16 03:22:31;;;;;;;6.20;3.70;;;6.80;99.90;;;;;;5351335;26;20544;-64
2024/04/16 03:25:01;;;;;;;5.00;3.57;;;6.90;99.90;;;;;;5353813;26;20548;-65
2024/04/16 03:27:31;;;;;;;4.57;3.53;;;6.90;99.90;;;;;;5353302;26;20661;-63
2024/04/16 03:29:58;;;;;;;3.90;3.47;;;6.90;99.90;;;;;;5348844;26;20538;-65
2024/04/16 03:32:28;;;;;;;3.53;3.20;;;6.90;99.90;;;;;;5352736;26;20488;-65
2024/04/16 03:34:55;;;;;;;5.07;3.50;;;6.90;99.90;;;;;;5350914;26;20560;-64
2024/04/16 03:37:26;;;;;;;4.20;3.80;;;6.90;99.90;;;;;;5353476;26;20508;-65
2024/04/16 03:39:56;;;;;;;6.60;4.00;;;6.90;99.90;;;;;;5345363;26;20608;-65
2024/04/16 03:42:29;;;;;;;4.30;3.90;;;6.90;99.90;;;;;;5350108;26;20821;-65
2024/04/16 03:44:56;;;;;;;5.13;3.73;;;6.90;99.90;;;;;;5353344;26;20486;-65
2024/04/16 03:47:25;;;;;;;4.77;3.97;;;6.80;99.90;;;;;;5350461;26;21104;-65
2024/04/16 03:49:53;;;;;;;6.03;3.90;;;6.80;99.90;;;;;;5346879;26;20483;-65
2024/04/16 03:52:22;;;;;;;6.13;4.40;;;6.80;99.90;;;;;;5346142;26;21055;-65
2024/04/16 03:54:50;;;;;;;5.93;3.90;;;6.80;99.90;;;;;;5345918;26;20817;-65
2024/04/16 03:57:20;;;;;;;5.40;4.40;;;6.90;99.90;;;;;;5350765;26;20529;-65
2024/04/16 04:02:38;;;;;;;6.33;4.60;;;6.80;99.90;;;;;;5347239;26;20495;-64
2024/04/16 04:05:08;;;;;;;5.17;4.67;;;6.80;99.90;;;;;;5350624;26;20553;-65
2024/04/16 04:07:35;;;;;;;5.30;4.00;;;6.80;99.90;;;;;;5348418;26;20896;-65
2024/04/16 04:10:07;;;;;;;4.97;4.30;;;6.90;99.90;;;;;;5343353;26;20507;-66
2024/04/16 04:12:35;;;;;;;4.47;3.97;;;6.90;99.90;;;;;;5345146;26;20537;-65
2024/04/16 04:15:09;;;;;;;4.40;3.93;;;7.00;99.90;;;;;;5353768;26;22769;-65
2024/04/16 04:17:36;;;;;;;4.10;3.70;;;7.00;99.90;;;;;;5352222;26;20638;-65
2024/04/16 04:20:06;;;;;;;6.07;3.63;;;7.00;99.90;;;;;;5343711;26;21055;-66
2024/04/16 04:22:34;;;;;;;4.20;3.30;;;7.00;99.90;;;;;;5354133;26;20489;-65
2024/04/16 04:25:04;;;;;;;3.23;2.93;;;7.00;99.90;;;;;;5353120;26;21263;-66
2024/04/16 04:27:33;;;;;;;5.43;3.40;;;7.00;99.90;;;;;;5348260;26;20531;-65
2024/04/16 04:30:01;;;;;;;3.40;2.73;;;7.00;99.90;;;;;;5350386;26;20472;-65
2024/04/16 04:32:33;;;;;;;3.17;2.27;;;7.00;99.90;;;;;;5345546;26;20497;-65
2024/04/16 04:35:04;;;;;;;3.60;1.80;;;7.00;99.90;;;;;;5352140;26;22340;-65
2024/04/16 04:37:34;;;;;;;2.70;2.10;;;7.00;99.90;;;;;;5343193;26;20608;-65
2024/04/16 04:40:02;;;;;;;4.40;2.20;;;7.00;99.90;;;;;;5350221;26;20474;-64
2024/04/16 04:42:32;;;;;;;2.20;1.77;;;7.00;99.90;;;;;;5350995;26;20492;-65
2024/04/16 04:44:59;;;;;;;2.33;1.77;;;7.00;99.90;;;;;;5355073;26;20537;-65
2024/04/16 04:47:29;;;;;;;1.97;1.83;;;7.00;99.90;;;;;;5341197;26;20484;-64
2024/04/16 04:49:59;;;;;;;2.87;2.20;;;7.00;99.90;;;;;;5346483;26;20536;-65
2024/04/16 04:52:29;;;;;;;2.20;2.00;;;7.00;99.90;;;;;;5347031;26;21022;-65
2024/04/16 04:54:56;;;;;;;2.10;2.00;;;7.00;99.90;;;;;;5353095;26;20963;-65
2024/04/16 04:57:26;;;;;;;3.17;2.63;;;7.10;99.90;;;;;;5344386;26;20484;-64
2024/04/16 04:59:53;;;;;;;3.50;2.93;;;7.10;99.90;;;;;;5348961;26;20829;-64
2024/04/16 05:02:23;;;;;;;2.73;2.53;;;7.10;99.90;;;;;;5339934;26;20484;-64
2024/04/16 05:04:50;;;;;;;3.87;3.27;;;7.10;99.90;;;;;;5349000;26;21067;-65
2024/04/16 05:07:23;;;;;;;3.37;3.07;;;7.20;99.90;;;;;;5351093;26;20626;-65
2024/04/16 05:09:53;;;;;;;3.10;2.80;;;7.20;99.90;;;;;;5350598;26;20481;-65
2024/04/16 05:12:22;;;;;;;5.60;3.13;;;7.20;99.90;;;;;;5346682;26;20513;-65
2024/04/16 05:14:50;;;;;;;4.97;3.63;;;7.20;99.90;;;;;;5339726;26;21326;-65
2024/04/16 05:17:20;;;;;;;3.43;3.13;;;7.20;99.90;;;;;;5343921;26;20469;-66
2024/04/16 05:19:47;;;;;;;4.00;3.37;;;7.20;99.90;;;;;;5337467;26;20493;-64
2024/04/16 05:22:17;;;;;;;3.97;3.57;;;7.30;99.90;;;;;;5341183;26;20473;-64
2024/04/16 05:24:47;;;;;;;4.70;3.50;;;7.20;99.90;;;;;;5348169;26;20540;-65
2024/04/16 05:27:17;;;;;;;4.00;3.27;;;7.20;99.90;;;;;;5352027;26;20493;-65
2024/04/16 05:29:44;;;;;;;3.13;2.83;;;7.20;99.90;;;;;;5350561;26;20603;-65
2024/04/16 05:32:14;;;;;;;3.50;2.93;;;7.20;99.90;;;;;;5351006;26;20481;-65
2024/04/16 05:34:41;;;;;;;3.10;2.80;;;7.20;99.90;;;;;;5349413;26;20477;-65
2024/04/16 05:37:11;;;;;;;3.00;2.80;;;7.20;99.90;;;;;;5351582;26;21116;-65
2024/04/16 05:39:39;;;;;;;4.77;2.63;;;7.10;99.90;;;;;;5348091;26;20578;-64
2024/04/16 05:42:12;;;;;;;5.50;2.80;;;7.00;99.90;;;;;;5342488;26;20481;-65
2024/04/16 05:44:39;;;;;;;3.20;2.90;;;7.10;99.90;;;;;;5352082;26;21046;-64
2024/04/16 05:47:09;;;;;;;3.30;3.00;;;7.10;99.90;;;;;;5347172;26;21113;-65
2024/04/16 05:49:37;;;;;;;3.10;2.63;;;7.20;99.90;;;;;;5356361;26;20474;-65
2024/04/16 05:52:08;;;;;;;2.90;2.70;;;7.20;99.90;;;;;;5350713;26;20488;-65
2024/04/16 05:54:35;;;;;;;3.40;2.90;;;7.30;99.90;;;;;;5353706;26;20529;-65
2024/04/16 05:57:06;;;;;;;3.57;2.80;;;7.30;99.90;;;;;;5354515;26;20484;-65
2024/04/16 05:59:36;;;;;;;2.97;2.70;;;7.20;99.90;;;;;;5352226;26;20553;-65
2024/04/16 06:02:06;;;;;;;3.20;2.90;;;7.30;99.90;;;;;;5354584;26;21050;-64
2024/04/16 06:04:33;;;;;;;3.60;3.30;;;7.40;99.90;;;;;;5350822;26;20474;-64
2024/04/16 06:07:03;;;;;;;3.63;3.27;;;7.40;99.90;;;;;;5352895;26;20490;-65
2024/04/16 06:09:30;;;;;;;4.50;4.10;;;7.50;99.90;;;;;;5349239;26;20493;-65
2024/04/16 06:12:00;;;;;;;4.40;3.77;;;7.50;99.90;;;;;;5346825;26;20595;-64
2024/04/16 06:14:27;;;;;;;5.00;4.27;;;7.60;99.90;;;;;;5348368;26;20495;-65
2024/04/16 06:17:00;;;;;;;4.50;4.10;;;7.60;99.90;;;;;;5349287;26;20545;-63
2024/04/16 06:19:27;;;;;;;5.03;4.10;;;7.60;99.90;;;;;;5355613;26;20489;-65
2024/04/16 06:21:57;;;;;;;4.20;3.70;;;7.60;99.90;;;;;;5353701;26;21096;-65
2024/04/16 06:24:24;;;;;;;5.50;4.43;;;7.60;99.90;;;;;;5354354;26;20488;-65
2024/04/16 06:26:54;;;;;;;6.23;4.33;;;7.70;99.90;;;;;;5350131;26;20775;-65
2024/04/16 06:29:21;;;;;;;5.23;4.17;;;7.70;99.90;;;;;;5358453;26;21232;-65
2024/04/16 06:31:51;;;;;;;4.83;4.17;;;7.70;99.90;;;;;;5353510;26;20577;-65
2024/04/16 06:34:21;;;;;;;5.90;4.00;;;7.70;99.90;;;;;;5355032;26;21196;-65
2024/04/16 06:36:51;;;;;;;5.87;4.00;;;7.60;99.90;;;;;;5352423;26;20502;-65
2024/04/16 06:39:18;;;;;;;4.33;3.93;;;7.50;99.90;;;;;;5357712;26;20980;-65
2024/04/16 06:41:48;;;;;;;4.60;4.20;;;7.60;99.90;;;;;;5354944;26;20482;-65
2024/04/16 06:44:15;;;;;;;3.77;3.47;;;7.70;99.90;;;;;;5356550;26;20473;-65
2024/04/16 06:46:45;;;;;;;4.10;3.23;;;7.60;99.90;;;;;;5348886;26;20484;-65
2024/04/16 06:49:13;;;;;;;4.00;3.60;;;7.70;99.90;;;;;;5356517;26;21187;-64
2024/04/16 06:51:50;;;;;;;4.70;3.50;;;7.80;99.90;;;;;;5353327;26;20557;-65
2024/04/16 06:54:18;;;;;;;5.60;4.00;;;7.80;99.90;;;;;;5353687;26;20478;-65
2024/04/16 06:56:47;;;;;;;4.37;3.57;;;7.80;99.90;;;;;;5354160;26;20526;-65
2024/04/16 06:59:15;;;;;;;4.43;3.97;;;7.80;99.90;;;;;;5357816;26;20485;-65
2024/04/16 07:01:44;;;;;;;4.60;4.20;;;7.70;99.90;;;;;;5354348;26;20476;-65
2024/04/16 07:04:12;;;;;;;4.73;4.23;;;7.80;99.90;;;;;;5350343;26;20537;-65
2024/04/16 07:06:42;;;;;;;3.80;3.40;;;7.80;99.90;;;;;;5354186;26;20522;-65
2024/04/16 07:09:12;;;;;;;4.63;4.23;;;7.90;99.90;;;;;;5356801;26;23436;-65
2024/04/16 07:11:41;;;;;;;5.13;4.20;;;7.90;99.90;;;;;;5352614;26;20603;-64
2024/04/16 07:14:09;;;;;;;6.07;4.73;;;7.90;99.90;;;;;;5352184;26;20537;-64
2024/04/16 07:16:39;;;;;;;5.87;4.77;;;8.00;99.90;;;;;;5354476;26;20477;-65
2024/04/16 07:19:06;;;;;;;5.00;4.50;;;8.10;99.90;;;;;;5352351;26;20532;-65
2024/04/16 07:21:36;;;;;;;5.53;4.37;;;8.10;99.90;;;;;;5350878;26;20529;-64
2024/04/16 07:24:03;;;;;;;5.37;4.87;;;8.10;99.90;;;;;;5349467;26;20481;-65
2024/04/16 07:26:36;;;;;;;7.37;4.90;;;8.10;99.90;;;;;;5356892;26;21028;-65
2024/04/16 07:29:03;;;;;;;5.70;5.07;;;8.10;99.90;;;;;;5357329;26;20486;-63
2024/04/16 07:31:33;;;;;;;7.47;5.37;;;8.10;99.90;;;;;;5352690;26;21150;-65
2024/04/16 07:34:10;;;;;;;6.00;5.33;;;8.20;99.90;;;;;;5353077;26;21040;-64
2024/04/16 07:36:41;;;;;;;8.17;6.57;;;8.10;99.90;;;;;;5355164;26;21087;-65
2024/04/16 07:39:08;;;;;;;6.40;5.80;;;8.10;99.90;;;;;;5353115;26;20489;-65
2024/04/16 07:41:40;;;;;;;7.43;6.60;;;8.10;99.90;;;;;;5357868;26;20584;-64
2024/04/16 07:44:07;;;;;;;7.13;6.43;;;8.10;99.90;;;;;;5352749;26;20472;-65
2024/04/16 07:46:37;;;;;;;8.77;6.40;;;8.10;99.90;;;;;;5356279;26;20541;-64
2024/04/16 07:49:05;;;;;;;10.13;7.43;;;8.10;99.90;;;;;;5350025;26;20592;-65
2024/04/16 07:51:34;;;;;;;10.30;7.20;;;8.10;99.90;;;;;;5353446;26;20555;-65
2024/04/16 07:54:02;;;;;;;11.43;7.20;;;8.10;99.90;;;;;;5350942;26;20477;-65
2024/04/16 07:56:31;;;;;;;9.60;6.87;;;8.20;99.90;;;;;;5348375;26;21014;-64
2024/04/16 07:59:01;;;;;;;7.77;6.07;;;8.20;99.90;;;;;;5351620;26;20524;-65
2024/04/16 08:01:31;;;;;;;7.10;6.40;;;8.20;99.90;;;;;;5355550;26;20536;-67
2024/04/16 08:03:58;;;;;;;6.53;5.83;;;8.20;99.90;;;;;;5352469;26;20869;-65
2024/04/16 08:06:28;;;;;;;7.40;6.53;;;8.20;99.90;;;;;;5354568;26;20484;-65
2024/04/16 08:08:56;;;;;;;9.30;6.80;;;8.30;99.90;;;;;;5357096;26;20491;-64
2024/04/16 08:11:26;;;;;;;8.53;7.07;;;8.30;99.90;;;;;;5355433;26;21176;-64
2024/04/16 08:13:54;;;;;;;8.97;6.93;;;8.40;99.90;;;;;;5356913;26;20493;-64
2024/04/16 08:16:29;;;;;;;8.90;7.60;;;8.40;99.90;;;;;;5358887;26;20489;-65
2024/04/16 08:18:56;;;;;;;10.20;7.73;;;8.40;99.90;;;;;;5350825;26;20576;-65
2024/04/16 08:21:26;;;;;;;12.03;8.57;;;8.40;99.90;;;;;;5356283;26;20489;-67
2024/04/16 08:23:58;;;;;;;9.20;7.40;;;8.50;99.90;;;;;;5356320;26;20480;-64
2024/04/16 08:26:25;;;;;;;8.37;7.47;;;8.50;99.90;;;;;;5353456;26;20485;-64
2024/04/16 08:28:55;;;;;;;9.37;7.70;;;8.40;99.90;;;;;;5351653;26;20488;-65
2024/04/16 08:31:28;;;;;;;11.53;8.70;;;8.50;99.90;;;;;;5358281;26;20577;-65
2024/04/16 08:33:55;;;;;;;11.17;8.40;;;8.60;99.90;;;;;;5359410;26;20600;-65
2024/04/16 08:36:25;;;;;;;10.67;7.97;;;8.70;99.90;;;;;;5362981;26;20497;-65
2024/04/16 08:38:52;;;;;;;11.20;8.20;;;8.70;99.90;;;;;;5361056;26;20483;-65
2024/04/16 08:41:23;;;;;;;9.07;7.10;;;8.70;99.90;;;;;;5363763;26;20539;-64
2024/04/16 08:43:50;;;;;;;9.30;7.33;;;8.60;99.90;;;;;;5360178;26;20488;-63
2024/04/16 08:46:21;;;;;;;10.00;7.30;;;8.60;99.90;;;;;;5363360;26;20543;-64
2024/04/16 08:48:52;;;;;;;7.83;7.00;;;8.60;99.90;;;;;;5360397;26;20536;-65
2024/04/16 08:51:23;;;;;;;11.33;7.37;;;8.70;99.90;;;;;;5364850;26;21152;-65
2024/04/16 08:53:52;;;;;;;8.47;6.70;;;8.70;99.90;;;;;;5363624;26;20487;-63
2024/04/16 08:56:23;;;;;;;6.87;6.17;;;8.70;99.90;;;;;;5360341;26;20495;-66
2024/04/16 08:58:50;;;;;;;6.83;6.13;;;8.70;99.90;;;;;;5357680;26;21035;-65
2024/04/16 09:01:20;;;;;;;6.93;6.13;;;8.80;99.90;;;;;;5353973;26;20891;-65
2024/04/16 09:03:50;;;;;;;10.23;6.77;;;8.80;99.90;;;;;;5360822;26;20569;-64
2024/04/16 09:06:23;;;;;;;9.00;6.03;;;8.80;99.90;;;;;;5363717;26;20582;-64
2024/04/16 09:08:52;;;;;;;7.23;6.20;;;8.80;99.90;;;;;;5359591;26;20905;-63
2024/04/16 09:11:37;;;;;;;7.80;6.07;;;8.90;99.90;;;;;;5361010;26;20532;-65
2024/04/16 09:14:06;;;;;;;9.10;5.30;;;9.00;99.90;;;;;;5361237;26;20472;-65
2024/04/16 09:16:38;;;;;;;7.63;6.33;;;9.10;99.90;;;;;;5361329;26;20481;-65
2024/04/16 09:19:06;;;;;;;7.63;5.63;;;9.10;99.90;;;;;;5356807;26;21070;-65
2024/04/16 09:21:39;;;;;;;7.90;6.10;;;9.10;99.90;;;;;;5356902;26;20836;-65
2024/04/16 09:24:07;;;;;;;6.43;5.03;;;9.10;99.90;;;;;;5357868;26;20931;-66
2024/04/16 09:26:38;;;;;;;10.33;5.80;;;9.20;99.90;;;;;;5362810;26;20474;-65
2024/04/16 09:29:05;;;;;;;6.13;5.00;;;9.20;99.90;;;;;;5359476;26;20550;-63
2024/04/16 09:31:35;;;;;;;8.03;5.53;;;9.30;99.90;;;;;;5357177;26;20877;-64
2024/04/16 09:34:06;;;;;;;8.10;5.43;;;9.30;99.90;;;;;;5357743;26;21548;-64
2024/04/16 09:36:49;;;;;;;7.37;4.80;;;9.40;99.90;;;;;;5354109;26;20484;-65
2024/04/16 09:39:17;;;;;;;8.03;4.70;;;9.50;99.90;;;;;;5356262;26;20481;-65
2024/04/16 09:41:49;;;;;;;6.13;4.50;;;9.50;99.90;;;;;;5356829;26;20587;-64
2024/04/16 09:44:17;;;;;;;7.03;5.57;;;9.60;99.90;;;;;;5362082;26;20484;-65
2024/04/16 09:46:47;;;;;;;9.97;4.67;;;9.60;99.90;;;;;;5358249;26;20476;-65
2024/04/16 09:49:21;;;;;;;6.83;5.30;;;9.60;99.90;;;;;;5359775;26;20524;-64
2024/04/16 09:52:03;;;;;;;7.23;5.70;;;9.60;99.90;;;;;;5357153;26;20999;-65
2024/04/16 09:54:31;;;;;;;7.57;6.20;;;9.50;99.90;;;;;;5358740;26;20547;-65
2024/04/16 09:57:03;;;;;;;5.93;5.30;;;9.50;99.90;;;;;;5352784;26;20610;-65
2024/04/16 09:59:32;;;;;;;7.17;5.70;;;9.50;99.90;;;;;;5353174;26;20555;-65
2024/04/16 10:02:05;;;;;;;7.20;5.10;;;9.40;99.90;;;;;;5356005;26;20485;-65
2024/04/16 10:04:33;;;;;;;8.67;6.50;;;9.40;99.90;;;;;;5358000;26;20484;-65
2024/04/16 10:07:07;;;;;;;6.23;5.10;;;9.40;99.90;;;;;;5360167;26;20921;-64
2024/04/16 10:09:34;;;;;;;5.57;4.80;;;9.50;99.90;;;;;;5355406;26;20592;-65
2024/04/16 10:12:05;;;;;;;5.00;4.47;;;9.70;99.90;;;;;;5356538;26;20535;-65
2024/04/16 10:14:32;;;;;;;4.67;4.00;;;9.70;99.90;;;;;;5359327;26;20570;-65
2024/04/16 10:17:03;;;;;;;6.00;4.50;;;9.80;99.90;;;;;;5359057;26;20489;-65
2024/04/16 10:19:30;;;;;;;4.67;4.27;;;9.90;99.90;;;;;;5351666;26;20492;-65
2024/04/16 10:22:03;;;;;;;4.90;3.83;;;9.90;99.90;;;;;;5354951;26;20488;-65
2024/04/16 10:24:33;;;;;;;4.00;3.60;;;9.90;99.90;;;;;;5359554;26;20894;-64
2024/04/16 10:27:03;;;;;;;5.30;3.47;;;9.90;99.90;;;;;;5356789;26;20555;-65
2024/04/16 10:29:36;;;;;;;4.70;3.83;;;10.00;99.90;;;;;;5357970;26;20501;-65
2024/04/16 10:32:08;;;;;;;3.00;2.70;;;9.90;99.90;;;;;;5354408;26;20486;-65
2024/04/16 10:34:41;;;;;;;3.67;2.43;;;9.90;99.90;;;;;;5357333;26;20573;-65
2024/04/16 10:37:11;;;;;;;6.43;2.43;;;10.00;99.90;;;;;;5355716;26;20477;-65
2024/04/16 10:39:40;;;;;;;2.70;2.50;;;10.10;99.90;;;;;;5359087;26;21100;-65
2024/04/16 10:42:12;;;;;;;3.77;2.37;;;10.00;99.90;;;;;;5352937;26;21258;-65
2024/04/16 10:44:40;;;;;;;3.20;2.37;;;10.00;99.90;;;;;;5360129;26;20592;-64
2024/04/16 10:47:11;;;;;;;5.67;2.23;;;10.10;99.90;;;;;;5355183;26;20549;-65
2024/04/16 10:49:38;;;;;;;4.50;2.60;;;10.20;99.90;;;;;;5354446;26;20497;-65
2024/04/16 10:52:12;;;;;;;5.30;2.80;;;10.30;99.90;;;;;;5355428;26;20500;-64
2024/04/16 10:54:42;;;;;;;2.23;2.03;;;10.40;99.90;;;;;;5360008;26;20466;-64
2024/04/16 10:57:12;;;;;;;3.40;1.90;;;10.40;99.90;;;;;;5353553;26;20484;-65
2024/04/16 10:59:40;;;;;;;3.47;1.83;;;10.50;99.90;;;;;;5356301;26;20484;-67
2024/04/16 11:02:22;;;;;;;2.20;1.53;;;10.60;99.90;;;;;;5357178;26;20546;-66
2024/04/16 11:04:50;;;;;;;1.60;1.50;;;10.60;99.90;;;;;;5356264;26;20484;-67
2024/04/16 11:07:20;;;;;;;1.50;1.40;;;10.70;99.90;;;;;;5355581;26;20547;-66
2024/04/16 11:09:50;;;;;;;1.90;1.60;;;10.70;99.90;;;;;;5351374;26;20488;-67
2024/04/16 11:12:20;;;;;;;3.27;1.40;;;10.80;99.90;;;;;;5359327;26;20549;-66
2024/04/16 11:14:47;;;;;;;2.47;1.70;;;10.80;99.90;;;;;;5353348;26;20487;-66
2024/04/16 11:17:17;;;;;;;1.77;1.60;;;10.90;99.90;;;;;;5355081;26;20533;-67
2024/04/16 11:19:45;;;;;;;1.70;1.60;;;10.90;99.90;;;;;;5355960;26;20536;-66
2024/04/16 11:22:15;;;;;;;1.80;1.50;;;10.90;99.90;;;;;;5359953;26;20562;-66
2024/04/16 11:24:43;;;;;;;3.40;1.87;;;10.90;99.90;;;;;;5359583;26;20472;-67
2024/04/16 11:27:16;;;;;;;1.43;1.33;;;10.90;99.90;;;;;;5344593;26;20521;-67
2024/04/16 11:29:46;;;;;;;2.37;1.57;;;10.90;99.90;;;;;;5354970;26;20546;-67
2024/04/16 11:32:16;;;;;;;2.83;2.00;;;10.90;99.90;;;;;;5351948;26;20473;-66
2024/04/16 11:34:44;;;;;;;2.23;1.83;;;10.90;99.90;;;;;;5356107;26;20558;-66
2024/04/16 11:37:14;;;;;;;2.10;1.63;;;10.80;99.90;;;;;;5352837;26;20544;-68
2024/04/16 11:39:43;;;;;;;1.93;1.60;;;10.80;99.90;;;;;;5352666;26;20537;-67
2024/04/16 11:42:16;;;;;;;2.87;1.70;;;10.90;99.90;;;;;;5358774;26;20485;-67
2024/04/16 11:44:43;;;;;;;2.43;2.13;;;10.90;99.90;;;;;;5355976;26;20476;-68
2024/04/16 11:47:13;;;;;;;2.53;2.33;;;10.80;99.90;;;;;;5350820;26;20489;-68
2024/04/16 11:49:41;;;;;;;4.47;2.40;;;10.90;99.90;;;;;;5356080;26;20485;-67
2024/04/16 11:52:11;;;;;;;2.30;1.90;;;10.90;99.90;;;;;;5352274;26;20533;-67
2024/04/16 11:54:38;;;;;;;3.50;2.33;;;10.80;99.90;;;;;;5352088;26;20569;-67
2024/04/16 11:57:08;;;;;;;2.60;2.40;;;10.80;99.90;;;;;;5354728;26;20493;-67
2024/04/16 11:59:38;;;;;;;2.50;2.30;;;10.80;99.90;;;;;;5355770;26;20484;-67
2024/04/16 12:02:07;;;;;;;2.73;2.07;;;10.90;99.90;;;;;;5352457;26;21387;-67
2024/04/16 12:04:38;;;;;;;3.13;2.00;;;10.90;99.90;;;;;;5354025;26;20522;-67
2024/04/16 12:07:08;;;;;;;4.30;2.40;;;10.90;99.90;;;;;;5347882;26;21119;-65
2024/04/16 12:09:36;;;;;;;3.77;2.23;;;10.90;99.90;;;;;;5351400;26;20465;-67
2024/04/16 12:12:06;;;;;;;4.53;2.60;;;10.90;99.90;;;;;;5346547;26;20472;-67
2024/04/16 12:14:33;;;;;;;2.93;2.30;;;10.90;99.90;;;;;;5352421;26;21047;-67
2024/04/16 12:17:06;;;;;;;2.83;2.63;;;11.00;99.90;;;;;;5348167;26;21305;-67
2024/04/16 12:19:33;;;;;;;2.90;2.33;;;11.10;99.90;;;;;;5348787;26;20494;-67
2024/04/16 12:22:03;;;;;;;3.80;2.40;;;11.10;99.90;;;;;;5347548;26;20593;-67
2024/04/16 12:24:30;;;;;;;2.67;2.30;;;11.00;99.90;;;;;;5349853;26;20544;-67
2024/04/16 12:27:00;;;;;;;2.30;2.10;;;10.90;99.90;;;;;;5351874;26;20487;-67
2024/04/16 12:29:28;;;;;;;2.20;1.80;;;10.80;99.90;;;;;;5345524;26;20822;-67
2024/04/16 12:31:57;;;;;;;1.70;1.30;;;10.80;99.90;;;;;;5355276;26;20505;-67
2024/04/16 12:34:30;;;;;;;1.20;1.10;;;10.70;99.90;;;;;;5349637;26;21037;-67
2024/04/16 12:37:00;;;;;;;1.33;1.20;;;10.70;99.90;;;;;;5351446;26;20542;-67
2024/04/16 12:39:28;;;;;;;1.30;1.20;;;10.70;99.90;;;;;;5347962;26;20500;-66
2024/04/16 12:42:00;;;;;;;1.60;1.30;;;10.60;99.90;;;;;;5349676;26;20477;-66
2024/04/16 12:44:28;;;;;;;3.83;1.80;;;10.50;99.90;;;;;;5347809;26;20485;-67
2024/04/16 12:46:57;;;;;;;1.70;1.60;;;10.50;99.90;;;;;;5348082;26;20474;-69
2024/04/16 12:49:25;;;;;;;2.13;1.30;;;10.50;99.90;;;;;;5342254;26;21036;-67
2024/04/16 12:51:57;;;;;;;1.30;1.20;;;10.40;99.90;;;;;;5348852;26;21743;-67
2024/04/16 12:54:25;;;;;;;2.80;1.47;;;10.40;99.90;;;;;;5353935;26;20468;-67
2024/04/16 12:56:56;;;;;;;2.17;1.60;;;10.30;99.90;;;;;;5343914;26;20548;-67
2024/04/16 12:59:23;;;;;;;1.43;1.10;;;10.20;99.90;;;;;;5355391;26;20485;-67
2024/04/16 13:01:53;;;;;;;1.30;1.20;;;10.20;99.90;;;;;;5350824;26;20489;-67
2024/04/16 13:04:21;;;;;;;2.40;0.80;;;10.10;99.90;;;;;;5353139;26;20885;-67
2024/04/16 13:06:51;;;;;;;0.60;0.60;;;9.90;99.90;;;;;;5351191;26;20488;-68
2024/04/16 13:09:21;;;;;;;1.10;0.60;;;9.80;99.90;;;;;;5348261;26;20476;-67